sensor_id;sensor_type;location;lat;lon;timestamp;P1;durP1;ratioP1;P2;durP2;ratioP2
19456;SDS011;9867;48.094;11.478;2023-04-08T00:02:04;6.90;;;6.20;;
19456;SDS011;9867;48.094;11.478;2023-04-08T00:04:32;8.10;;;7.30;;
19456;SDS011;9867;48.094;11.478;2023-04-08T00:06:59;7.37;;;6.77;;
19456;SDS011;9867;48.094;11.478;2023-04-08T00:09:27;7.50;;;6.83;;
19456;SDS011;9867;48.094;11.478;2023-04-08T00:11:55;7.83;;;7.07;;
19456;SDS011;9867;48.094;11.478;2023-04-08T00:14:23;7.57;;;6.87;;
19456;SDS011;9867;48.094;11.478;2023-04-08T00:16:51;7.70;;;7.00;;
19456;SDS011;9867;48.094;11.478;2023-04-08T00:19:20;7.30;;;6.47;;
19456;SDS011;9867;48.094;11.478;2023-04-08T00:21:48;7.70;;;7.00;;
19456;SDS011;9867;48.094;11.478;2023-04-08T00:24:16;7.03;;;6.33;;
19456;SDS011;9867;48.094;11.478;2023-04-08T00:26:44;7.10;;;6.50;;
19456;SDS011;9867;48.094;11.478;2023-04-08T00:29:12;7.57;;;6.87;;
19456;SDS011;9867;48.094;11.478;2023-04-08T00:31:41;7.43;;;6.73;;
19456;SDS011;9867;48.094;11.478;2023-04-08T00:34:09;7.47;;;6.70;;
19456;SDS011;9867;48.094;11.478;2023-04-08T00:36:38;7.17;;;6.57;;
19456;SDS011;9867;48.094;11.478;2023-04-08T00:39:06;7.60;;;6.90;;
19456;SDS011;9867;48.094;11.478;2023-04-08T00:41:33;8.07;;;6.40;;
19456;SDS011;9867;48.094;11.478;2023-04-08T00:44:01;7.10;;;6.40;;
19456;SDS011;9867;48.094;11.478;2023-04-08T00:46:29;7.60;;;6.90;;
19456;SDS011;9867;48.094;11.478;2023-04-08T00:49:02;7.00;;;6.30;;
19456;SDS011;9867;48.094;11.478;2023-04-08T00:51:30;8.33;;;6.93;;
19456;SDS011;9867;48.094;11.478;2023-04-08T00:53:59;7.40;;;6.60;;
19456;SDS011;9867;48.094;11.478;2023-04-08T00:56:27;8.17;;;7.10;;
19456;SDS011;9867;48.094;11.478;2023-04-08T00:58:55;7.03;;;6.43;;
19456;SDS011;9867;48.094;11.478;2023-04-08T01:01:26;7.60;;;6.90;;
19456;SDS011;9867;48.094;11.478;2023-04-08T01:04:01;7.70;;;6.90;;
19456;SDS011;9867;48.094;11.478;2023-04-08T01:06:36;7.90;;;7.10;;
19456;SDS011;9867;48.094;11.478;2023-04-08T01:09:09;7.37;;;6.77;;
19456;SDS011;9867;48.094;11.478;2023-04-08T01:11:41;7.67;;;6.97;;
19456;SDS011;9867;48.094;11.478;2023-04-08T01:14:11;8.03;;;7.30;;
19456;SDS011;9867;48.094;11.478;2023-04-08T01:16:43;7.87;;;7.17;;
19456;SDS011;9867;48.094;11.478;2023-04-08T01:19:26;7.23;;;6.60;;
19456;SDS011;9867;48.094;11.478;2023-04-08T01:22:00;7.93;;;7.27;;
19456;SDS011;9867;48.094;11.478;2023-04-08T01:24:35;7.90;;;7.10;;
19456;SDS011;9867;48.094;11.478;2023-04-08T01:27:09;8.40;;;7.30;;
19456;SDS011;9867;48.094;11.478;2023-04-08T01:29:38;8.30;;;7.50;;
19456;SDS011;9867;48.094;11.478;2023-04-08T01:32:08;7.77;;;6.97;;
19456;SDS011;9867;48.094;11.478;2023-04-08T01:34:37;8.07;;;7.20;;
19456;SDS011;9867;48.094;11.478;2023-04-08T01:37:08;8.13;;;7.33;;
19456;SDS011;9867;48.094;11.478;2023-04-08T01:39:36;8.40;;;7.43;;
19456;SDS011;9867;48.094;11.478;2023-04-08T01:42:09;8.00;;;7.30;;
19456;SDS011;9867;48.094;11.478;2023-04-08T01:44:38;7.97;;;7.00;;
19456;SDS011;9867;48.094;11.478;2023-04-08T01:47:07;7.67;;;6.97;;
19456;SDS011;9867;48.094;11.478;2023-04-08T01:49:37;7.80;;;7.07;;
19456;SDS011;9867;48.094;11.478;2023-04-08T01:52:05;7.83;;;7.13;;
19456;SDS011;9867;48.094;11.478;2023-04-08T01:54:36;8.10;;;7.47;;
19456;SDS011;9867;48.094;11.478;2023-04-08T01:57:04;8.23;;;7.40;;
19456;SDS011;9867;48.094;11.478;2023-04-08T01:59:39;8.20;;;7.50;;
19456;SDS011;9867;48.094;11.478;2023-04-08T02:02:09;8.83;;;7.93;;
19456;SDS011;9867;48.094;11.478;2023-04-08T02:04:38;7.67;;;6.97;;
19456;SDS011;9867;48.094;11.478;2023-04-08T02:07:06;8.37;;;7.33;;
19456;SDS011;9867;48.094;11.478;2023-04-08T02:09:35;8.53;;;7.73;;
19456;SDS011;9867;48.094;11.478;2023-04-08T02:12:02;8.43;;;7.73;;
19456;SDS011;9867;48.094;11.478;2023-04-08T02:14:31;9.10;;;8.30;;
19456;SDS011;9867;48.094;11.478;2023-04-08T02:17:01;8.60;;;7.80;;
19456;SDS011;9867;48.094;11.478;2023-04-08T02:19:35;8.77;;;8.00;;
19456;SDS011;9867;48.094;11.478;2023-04-08T02:22:11;8.47;;;7.77;;
19456;SDS011;9867;48.094;11.478;2023-04-08T02:24:46;8.57;;;7.77;;
19456;SDS011;9867;48.094;11.478;2023-04-08T02:27:15;8.40;;;7.70;;
19456;SDS011;9867;48.094;11.478;2023-04-08T02:29:45;8.33;;;7.63;;
19456;SDS011;9867;48.094;11.478;2023-04-08T02:32:17;8.70;;;7.90;;
19456;SDS011;9867;48.094;11.478;2023-04-08T02:34:45;8.07;;;7.47;;
19456;SDS011;9867;48.094;11.478;2023-04-08T02:37:14;9.23;;;8.33;;
19456;SDS011;9867;48.094;11.478;2023-04-08T02:39:42;8.97;;;8.17;;
19456;SDS011;9867;48.094;11.478;2023-04-08T02:42:10;9.30;;;8.40;;
19456;SDS011;9867;48.094;11.478;2023-04-08T02:44:38;8.63;;;7.83;;
19456;SDS011;9867;48.094;11.478;2023-04-08T02:47:06;8.77;;;8.07;;
19456;SDS011;9867;48.094;11.478;2023-04-08T02:49:35;8.87;;;7.97;;
19456;SDS011;9867;48.094;11.478;2023-04-08T02:52:03;10.03;;;8.90;;
19456;SDS011;9867;48.094;11.478;2023-04-08T02:54:31;9.30;;;8.50;;
19456;SDS011;9867;48.094;11.478;2023-04-08T02:56:59;9.10;;;8.33;;
19456;SDS011;9867;48.094;11.478;2023-04-08T02:59:27;8.93;;;8.03;;
19456;SDS011;9867;48.094;11.478;2023-04-08T03:01:54;9.20;;;8.40;;
19456;SDS011;9867;48.094;11.478;2023-04-08T03:04:22;9.33;;;8.57;;
19456;SDS011;9867;48.094;11.478;2023-04-08T03:06:52;9.03;;;8.13;;
19456;SDS011;9867;48.094;11.478;2023-04-08T03:09:19;9.17;;;8.33;;
19456;SDS011;9867;48.094;11.478;2023-04-08T03:11:47;8.00;;;7.30;;
19456;SDS011;9867;48.094;11.478;2023-04-08T03:14:18;9.30;;;8.43;;
19456;SDS011;9867;48.094;11.478;2023-04-08T03:16:46;8.50;;;7.80;;
19456;SDS011;9867;48.094;11.478;2023-04-08T03:19:14;9.60;;;8.73;;
19456;SDS011;9867;48.094;11.478;2023-04-08T03:21:42;10.43;;;8.60;;
19456;SDS011;9867;48.094;11.478;2023-04-08T03:24:11;9.47;;;8.67;;
19456;SDS011;9867;48.094;11.478;2023-04-08T03:26:39;9.63;;;8.73;;
19456;SDS011;9867;48.094;11.478;2023-04-08T03:29:07;9.83;;;8.93;;
19456;SDS011;9867;48.094;11.478;2023-04-08T03:31:35;9.40;;;8.40;;
19456;SDS011;9867;48.094;11.478;2023-04-08T03:34:03;9.93;;;9.00;;
19456;SDS011;9867;48.094;11.478;2023-04-08T03:36:31;10.50;;;9.60;;
19456;SDS011;9867;48.094;11.478;2023-04-08T03:38:59;10.37;;;9.17;;
19456;SDS011;9867;48.094;11.478;2023-04-08T03:41:30;10.70;;;9.50;;
19456;SDS011;9867;48.094;11.478;2023-04-08T03:43:58;10.37;;;9.37;;
19456;SDS011;9867;48.094;11.478;2023-04-08T03:46:25;9.80;;;8.87;;
19456;SDS011;9867;48.094;11.478;2023-04-08T03:48:53;10.43;;;9.43;;
19456;SDS011;9867;48.094;11.478;2023-04-08T03:51:21;10.93;;;9.40;;
19456;SDS011;9867;48.094;11.478;2023-04-08T03:53:49;9.57;;;8.77;;
19456;SDS011;9867;48.094;11.478;2023-04-08T03:56:17;10.30;;;9.40;;
19456;SDS011;9867;48.094;11.478;2023-04-08T03:58:46;10.97;;;10.07;;
19456;SDS011;9867;48.094;11.478;2023-04-08T04:01:14;10.50;;;9.60;;
19456;SDS011;9867;48.094;11.478;2023-04-08T04:03:43;10.40;;;9.50;;
19456;SDS011;9867;48.094;11.478;2023-04-08T04:06:11;10.37;;;9.37;;
19456;SDS011;9867;48.094;11.478;2023-04-08T04:08:39;10.67;;;9.70;;
19456;SDS011;9867;48.094;11.478;2023-04-08T04:11:07;11.33;;;10.17;;
19456;SDS011;9867;48.094;11.478;2023-04-08T04:13:34;11.50;;;10.40;;
19456;SDS011;9867;48.094;11.478;2023-04-08T04:16:04;11.40;;;10.40;;
19456;SDS011;9867;48.094;11.478;2023-04-08T04:18:32;11.87;;;10.77;;
19456;SDS011;9867;48.094;11.478;2023-04-08T04:21:00;11.13;;;10.23;;
19456;SDS011;9867;48.094;11.478;2023-04-08T04:23:31;11.60;;;10.57;;
19456;SDS011;9867;48.094;11.478;2023-04-08T04:25:59;11.83;;;10.73;;
19456;SDS011;9867;48.094;11.478;2023-04-08T04:28:27;16.10;;;12.10;;
19456;SDS011;9867;48.094;11.478;2023-04-08T04:30:55;11.93;;;10.93;;
19456;SDS011;9867;48.094;11.478;2023-04-08T04:33:24;11.60;;;10.60;;
19456;SDS011;9867;48.094;11.478;2023-04-08T04:35:52;12.13;;;10.97;;
19456;SDS011;9867;48.094;11.478;2023-04-08T04:38:21;12.50;;;11.30;;
19456;SDS011;9867;48.094;11.478;2023-04-08T04:40:49;11.63;;;10.53;;
19456;SDS011;9867;48.094;11.478;2023-04-08T04:43:17;12.53;;;11.23;;
19456;SDS011;9867;48.094;11.478;2023-04-08T04:45:44;12.00;;;10.90;;
19456;SDS011;9867;48.094;11.478;2023-04-08T04:48:12;12.00;;;11.00;;
19456;SDS011;9867;48.094;11.478;2023-04-08T04:50:42;12.87;;;11.57;;
19456;SDS011;9867;48.094;11.478;2023-04-08T04:53:09;13.40;;;12.20;;
19456;SDS011;9867;48.094;11.478;2023-04-08T04:55:37;12.80;;;11.60;;
19456;SDS011;9867;48.094;11.478;2023-04-08T04:58:05;12.37;;;11.20;;
19456;SDS011;9867;48.094;11.478;2023-04-08T05:00:33;12.57;;;11.43;;
19456;SDS011;9867;48.094;11.478;2023-04-08T05:03:01;11.67;;;10.67;;
19456;SDS011;9867;48.094;11.478;2023-04-08T05:05:29;11.93;;;10.73;;
19456;SDS011;9867;48.094;11.478;2023-04-08T05:07:58;11.90;;;10.47;;
19456;SDS011;9867;48.094;11.478;2023-04-08T05:10:26;12.33;;;11.13;;
19456;SDS011;9867;48.094;11.478;2023-04-08T05:12:54;12.20;;;11.10;;
19456;SDS011;9867;48.094;11.478;2023-04-08T05:15:22;13.00;;;11.70;;
19456;SDS011;9867;48.094;11.478;2023-04-08T05:17:50;12.13;;;10.93;;
19456;SDS011;9867;48.094;11.478;2023-04-08T05:20:18;11.30;;;10.30;;
19456;SDS011;9867;48.094;11.478;2023-04-08T05:22:46;11.93;;;10.83;;
19456;SDS011;9867;48.094;11.478;2023-04-08T05:25:15;12.07;;;10.83;;
19456;SDS011;9867;48.094;11.478;2023-04-08T05:27:43;12.47;;;11.27;;
19456;SDS011;9867;48.094;11.478;2023-04-08T05:30:11;13.03;;;11.77;;
19456;SDS011;9867;48.094;11.478;2023-04-08T05:32:39;12.37;;;11.20;;
19456;SDS011;9867;48.094;11.478;2023-04-08T05:35:07;13.10;;;11.83;;
19456;SDS011;9867;48.094;11.478;2023-04-08T05:37:36;12.53;;;11.20;;
19456;SDS011;9867;48.094;11.478;2023-04-08T05:40:04;12.23;;;11.13;;
19456;SDS011;9867;48.094;11.478;2023-04-08T05:42:34;12.47;;;11.27;;
19456;SDS011;9867;48.094;11.478;2023-04-08T05:45:02;15.13;;;13.73;;
19456;SDS011;9867;48.094;11.478;2023-04-08T05:47:30;11.00;;;10.00;;
19456;SDS011;9867;48.094;11.478;2023-04-08T05:49:59;11.67;;;10.67;;
19456;SDS011;9867;48.094;11.478;2023-04-08T05:52:27;14.83;;;13.50;;
19456;SDS011;9867;48.094;11.478;2023-04-08T05:54:55;12.30;;;11.20;;
19456;SDS011;9867;48.094;11.478;2023-04-08T05:57:22;11.93;;;10.13;;
19456;SDS011;9867;48.094;11.478;2023-04-08T05:59:52;10.13;;;9.23;;
19456;SDS011;9867;48.094;11.478;2023-04-08T06:02:19;9.77;;;8.87;;
19456;SDS011;9867;48.094;11.478;2023-04-08T06:04:47;9.80;;;8.80;;
19456;SDS011;9867;48.094;11.478;2023-04-08T06:07:15;9.73;;;8.87;;
19456;SDS011;9867;48.094;11.478;2023-04-08T06:09:43;9.40;;;8.60;;
19456;SDS011;9867;48.094;11.478;2023-04-08T06:12:11;9.83;;;8.87;;
19456;SDS011;9867;48.094;11.478;2023-04-08T06:14:39;9.00;;;8.20;;
19456;SDS011;9867;48.094;11.478;2023-04-08T06:17:08;9.40;;;8.60;;
19456;SDS011;9867;48.094;11.478;2023-04-08T06:19:36;9.30;;;8.40;;
19456;SDS011;9867;48.094;11.478;2023-04-08T06:22:03;9.50;;;8.70;;
19456;SDS011;9867;48.094;11.478;2023-04-08T06:24:31;8.73;;;7.87;;
19456;SDS011;9867;48.094;11.478;2023-04-08T06:26:59;9.60;;;8.80;;
19456;SDS011;9867;48.094;11.478;2023-04-08T06:29:28;10.70;;;9.70;;
19456;SDS011;9867;48.094;11.478;2023-04-08T06:31:56;9.13;;;8.33;;
19456;SDS011;9867;48.094;11.478;2023-04-08T06:34:25;10.30;;;9.40;;
19456;SDS011;9867;48.094;11.478;2023-04-08T06:36:53;10.40;;;9.50;;
19456;SDS011;9867;48.094;11.478;2023-04-08T06:39:21;10.60;;;9.60;;
19456;SDS011;9867;48.094;11.478;2023-04-08T06:41:49;10.97;;;9.97;;
19456;SDS011;9867;48.094;11.478;2023-04-08T06:44:30;11.77;;;10.77;;
19456;SDS011;9867;48.094;11.478;2023-04-08T06:46:58;11.03;;;10.13;;
19456;SDS011;9867;48.094;11.478;2023-04-08T06:49:27;11.73;;;10.67;;
19456;SDS011;9867;48.094;11.478;2023-04-08T06:51:55;11.83;;;10.73;;
19456;SDS011;9867;48.094;11.478;2023-04-08T06:54:23;11.77;;;10.77;;
19456;SDS011;9867;48.094;11.478;2023-04-08T06:56:51;12.97;;;11.87;;
19456;SDS011;9867;48.094;11.478;2023-04-08T06:59:19;13.13;;;11.90;;
19456;SDS011;9867;48.094;11.478;2023-04-08T07:01:46;13.17;;;11.97;;
19456;SDS011;9867;48.094;11.478;2023-04-08T07:04:14;13.73;;;12.47;;
19456;SDS011;9867;48.094;11.478;2023-04-08T07:06:44;13.93;;;12.73;;
19456;SDS011;9867;48.094;11.478;2023-04-08T07:09:12;15.17;;;13.70;;
19456;SDS011;9867;48.094;11.478;2023-04-08T07:11:39;16.33;;;14.63;;
19456;SDS011;9867;48.094;11.478;2023-04-08T07:14:07;15.73;;;14.33;;
19456;SDS011;9867;48.094;11.478;2023-04-08T07:16:35;16.27;;;14.80;;
19456;SDS011;9867;48.094;11.478;2023-04-08T07:19:03;16.77;;;15.07;;
19456;SDS011;9867;48.094;11.478;2023-04-08T07:21:31;16.07;;;14.63;;
19456;SDS011;9867;48.094;11.478;2023-04-08T07:24:01;17.20;;;15.60;;
19456;SDS011;9867;48.094;11.478;2023-04-08T07:26:28;17.40;;;15.77;;
19456;SDS011;9867;48.094;11.478;2023-04-08T07:28:56;18.30;;;16.50;;
19456;SDS011;9867;48.094;11.478;2023-04-08T07:31:24;17.37;;;15.77;;
19456;SDS011;9867;48.094;11.478;2023-04-08T07:33:52;17.10;;;15.40;;
19456;SDS011;9867;48.094;11.478;2023-04-08T07:36:20;18.07;;;16.47;;
19456;SDS011;9867;48.094;11.478;2023-04-08T07:38:48;17.50;;;15.90;;
19456;SDS011;9867;48.094;11.478;2023-04-08T07:41:17;17.53;;;15.90;;
19456;SDS011;9867;48.094;11.478;2023-04-08T07:43:45;17.20;;;15.60;;
19456;SDS011;9867;48.094;11.478;2023-04-08T07:46:13;16.60;;;15.07;;
19456;SDS011;9867;48.094;11.478;2023-04-08T07:48:41;16.50;;;15.00;;
19456;SDS011;9867;48.094;11.478;2023-04-08T07:51:09;16.73;;;15.23;;
19456;SDS011;9867;48.094;11.478;2023-04-08T07:53:37;17.07;;;15.37;;
19456;SDS011;9867;48.094;11.478;2023-04-08T07:56:09;17.17;;;15.57;;
19456;SDS011;9867;48.094;11.478;2023-04-08T07:58:39;17.77;;;15.97;;
19456;SDS011;9867;48.094;11.478;2023-04-08T08:01:14;17.37;;;15.67;;
19456;SDS011;9867;48.094;11.478;2023-04-08T08:03:43;15.50;;;14.10;;
19456;SDS011;9867;48.094;11.478;2023-04-08T08:06:11;16.23;;;14.63;;
19456;SDS011;9867;48.094;11.478;2023-04-08T08:08:39;15.23;;;12.43;;
19456;SDS011;9867;48.094;11.478;2023-04-08T08:11:07;14.03;;;12.63;;
19456;SDS011;9867;48.094;11.478;2023-04-08T08:13:34;13.90;;;12.60;;
19456;SDS011;9867;48.094;11.478;2023-04-08T08:16:04;13.37;;;11.97;;
19456;SDS011;9867;48.094;11.478;2023-04-08T08:18:34;14.10;;;12.60;;
19456;SDS011;9867;48.094;11.478;2023-04-08T08:21:02;14.00;;;12.70;;
19456;SDS011;9867;48.094;11.478;2023-04-08T08:23:30;13.03;;;11.87;;
19456;SDS011;9867;48.094;11.478;2023-04-08T08:25:58;14.20;;;12.80;;
19456;SDS011;9867;48.094;11.478;2023-04-08T08:28:27;14.33;;;12.77;;
19456;SDS011;9867;48.094;11.478;2023-04-08T08:30:55;13.17;;;11.87;;
19456;SDS011;9867;48.094;11.478;2023-04-08T08:33:24;13.63;;;12.33;;
19456;SDS011;9867;48.094;11.478;2023-04-08T08:35:52;13.10;;;11.80;;
19456;SDS011;9867;48.094;11.478;2023-04-08T08:38:20;13.60;;;12.30;;
19456;SDS011;9867;48.094;11.478;2023-04-08T08:40:52;14.70;;;13.10;;
19456;SDS011;9867;48.094;11.478;2023-04-08T08:43:21;14.17;;;12.73;;
19456;SDS011;9867;48.094;11.478;2023-04-08T08:45:49;15.07;;;13.67;;
19456;SDS011;9867;48.094;11.478;2023-04-08T08:48:17;15.67;;;14.27;;
19456;SDS011;9867;48.094;11.478;2023-04-08T08:50:48;14.87;;;13.47;;
19456;SDS011;9867;48.094;11.478;2023-04-08T08:53:16;16.43;;;14.87;;
19456;SDS011;9867;48.094;11.478;2023-04-08T08:55:45;15.10;;;13.70;;
19456;SDS011;9867;48.094;11.478;2023-04-08T08:58:15;15.83;;;14.33;;
19456;SDS011;9867;48.094;11.478;2023-04-08T09:00:43;16.73;;;15.03;;
19456;SDS011;9867;48.094;11.478;2023-04-08T09:03:15;16.60;;;14.70;;
19456;SDS011;9867;48.094;11.478;2023-04-08T09:05:50;15.60;;;14.00;;
19456;SDS011;9867;48.094;11.478;2023-04-08T09:08:25;15.10;;;13.47;;
19456;SDS011;9867;48.094;11.478;2023-04-08T09:10:55;14.17;;;12.83;;
19456;SDS011;9867;48.094;11.478;2023-04-08T09:13:36;14.80;;;13.33;;
19456;SDS011;9867;48.094;11.478;2023-04-08T09:16:05;14.47;;;13.17;;
19456;SDS011;9867;48.094;11.478;2023-04-08T09:18:35;15.93;;;14.43;;
19456;SDS011;9867;48.094;11.478;2023-04-08T09:21:05;16.57;;;14.97;;
19456;SDS011;9867;48.094;11.478;2023-04-08T09:23:40;16.73;;;14.97;;
19456;SDS011;9867;48.094;11.478;2023-04-08T09:26:10;16.00;;;14.30;;
19456;SDS011;9867;48.094;11.478;2023-04-08T09:28:39;15.87;;;14.17;;
19456;SDS011;9867;48.094;11.478;2023-04-08T09:31:20;17.13;;;15.33;;
19456;SDS011;9867;48.094;11.478;2023-04-08T09:33:49;17.50;;;15.90;;
19456;SDS011;9867;48.094;11.478;2023-04-08T09:36:20;17.17;;;15.50;;
19456;SDS011;9867;48.094;11.478;2023-04-08T09:38:48;18.57;;;16.87;;
19456;SDS011;9867;48.094;11.478;2023-04-08T09:41:17;17.13;;;15.43;;
19456;SDS011;9867;48.094;11.478;2023-04-08T09:43:49;17.40;;;15.53;;
19456;SDS011;9867;48.094;11.478;2023-04-08T09:46:18;16.90;;;15.23;;
19456;SDS011;9867;48.094;11.478;2023-04-08T09:48:58;19.63;;;16.90;;
19456;SDS011;9867;48.094;11.478;2023-04-08T09:51:34;17.43;;;15.60;;
19456;SDS011;9867;48.094;11.478;2023-04-08T09:54:09;18.33;;;16.43;;
19456;SDS011;9867;48.094;11.478;2023-04-08T09:56:42;17.13;;;15.37;;
19456;SDS011;9867;48.094;11.478;2023-04-08T09:59:14;17.47;;;15.77;;
19456;SDS011;9867;48.094;11.478;2023-04-08T10:01:49;14.73;;;13.23;;
19456;SDS011;9867;48.094;11.478;2023-04-08T10:04:21;15.93;;;14.43;;
19456;SDS011;9867;48.094;11.478;2023-04-08T10:06:53;15.63;;;14.03;;
19456;SDS011;9867;48.094;11.478;2023-04-08T10:09:26;14.63;;;13.20;;
19456;SDS011;9867;48.094;11.478;2023-04-08T10:11:55;14.93;;;13.53;;
19456;SDS011;9867;48.094;11.478;2023-04-08T10:14:22;15.30;;;13.80;;
19456;SDS011;9867;48.094;11.478;2023-04-08T10:19:50;14.97;;;13.57;;
19456;SDS011;9867;48.094;11.478;2023-04-08T10:25:28;14.43;;;13.03;;
19456;SDS011;9867;48.094;11.478;2023-04-08T10:27:57;13.97;;;12.67;;
19456;SDS011;9867;48.094;11.478;2023-04-08T10:30:39;14.53;;;13.10;;
19456;SDS011;9867;48.094;11.478;2023-04-08T10:33:08;13.73;;;12.40;;
19456;SDS011;9867;48.094;11.478;2023-04-08T10:35:40;14.77;;;12.60;;
19456;SDS011;9867;48.094;11.478;2023-04-08T10:38:15;15.90;;;14.30;;
19456;SDS011;9867;48.094;11.478;2023-04-08T10:40:43;15.03;;;13.63;;
19456;SDS011;9867;48.094;11.478;2023-04-08T10:43:12;14.37;;;13.03;;
19456;SDS011;9867;48.094;11.478;2023-04-08T10:45:41;14.27;;;12.97;;
19456;SDS011;9867;48.094;11.478;2023-04-08T10:48:14;14.37;;;13.10;;
19456;SDS011;9867;48.094;11.478;2023-04-08T10:50:44;14.57;;;13.13;;
19456;SDS011;9867;48.094;11.478;2023-04-08T10:53:24;14.67;;;13.37;;
19456;SDS011;9867;48.094;11.478;2023-04-08T10:55:53;15.50;;;13.53;;
19456;SDS011;9867;48.094;11.478;2023-04-08T10:58:21;14.13;;;12.67;;
19456;SDS011;9867;48.094;11.478;2023-04-08T11:00:49;14.57;;;13.23;;
19456;SDS011;9867;48.094;11.478;2023-04-08T11:03:17;14.43;;;13.17;;
19456;SDS011;9867;48.094;11.478;2023-04-08T11:05:46;14.90;;;13.50;;
19456;SDS011;9867;48.094;11.478;2023-04-08T11:08:17;14.77;;;13.33;;
19456;SDS011;9867;48.094;11.478;2023-04-08T11:10:48;16.13;;;14.43;;
19456;SDS011;9867;48.094;11.478;2023-04-08T11:13:16;14.57;;;13.07;;
19456;SDS011;9867;48.094;11.478;2023-04-08T11:15:45;15.30;;;13.90;;
19456;SDS011;9867;48.094;11.478;2023-04-08T11:18:13;14.93;;;13.53;;
19456;SDS011;9867;48.094;11.478;2023-04-08T11:20:42;16.03;;;14.53;;
19456;SDS011;9867;48.094;11.478;2023-04-08T11:23:11;16.33;;;14.80;;
19456;SDS011;9867;48.094;11.478;2023-04-08T11:25:40;15.97;;;14.47;;
19456;SDS011;9867;48.094;11.478;2023-04-08T11:28:10;16.30;;;14.80;;
19456;SDS011;9867;48.094;11.478;2023-04-08T11:30:38;16.50;;;15.00;;
19456;SDS011;9867;48.094;11.478;2023-04-08T11:33:07;16.77;;;15.27;;
19456;SDS011;9867;48.094;11.478;2023-04-08T11:35:38;16.90;;;15.40;;
19456;SDS011;9867;48.094;11.478;2023-04-08T11:38:07;16.93;;;15.23;;
19456;SDS011;9867;48.094;11.478;2023-04-08T11:40:34;16.87;;;15.17;;
19456;SDS011;9867;48.094;11.478;2023-04-08T11:43:07;16.83;;;15.13;;
19456;SDS011;9867;48.094;11.478;2023-04-08T11:45:37;16.43;;;14.87;;
19456;SDS011;9867;48.094;11.478;2023-04-08T11:48:09;16.43;;;14.83;;
19456;SDS011;9867;48.094;11.478;2023-04-08T11:50:39;14.57;;;13.17;;
19456;SDS011;9867;48.094;11.478;2023-04-08T11:53:15;16.37;;;14.73;;
19456;SDS011;9867;48.094;11.478;2023-04-08T11:55:45;16.00;;;14.60;;
19456;SDS011;9867;48.094;11.478;2023-04-08T11:58:15;16.60;;;15.13;;
19456;SDS011;9867;48.094;11.478;2023-04-08T12:00:43;16.07;;;14.57;;
19456;SDS011;9867;48.094;11.478;2023-04-08T12:03:11;15.77;;;14.27;;
19456;SDS011;9867;48.094;11.478;2023-04-08T12:05:39;15.67;;;14.17;;
19456;SDS011;9867;48.094;11.478;2023-04-08T12:08:07;16.07;;;14.30;;
19456;SDS011;9867;48.094;11.478;2023-04-08T12:10:35;16.40;;;14.90;;
19456;SDS011;9867;48.094;11.478;2023-04-08T12:13:04;17.40;;;15.67;;
19456;SDS011;9867;48.094;11.478;2023-04-08T12:15:33;17.47;;;15.77;;
19456;SDS011;9867;48.094;11.478;2023-04-08T12:18:01;16.87;;;15.27;;
19456;SDS011;9867;48.094;11.478;2023-04-08T12:20:29;16.17;;;14.57;;
19456;SDS011;9867;48.094;11.478;2023-04-08T12:22:57;16.33;;;14.77;;
19456;SDS011;9867;48.094;11.478;2023-04-08T12:25:27;17.40;;;15.80;;
19456;SDS011;9867;48.094;11.478;2023-04-08T12:27:56;18.07;;;16.37;;
19456;SDS011;9867;48.094;11.478;2023-04-08T12:30:24;17.50;;;15.70;;
19456;SDS011;9867;48.094;11.478;2023-04-08T12:32:55;17.10;;;15.50;;
19456;SDS011;9867;48.094;11.478;2023-04-08T12:35:23;16.67;;;15.20;;
19456;SDS011;9867;48.094;11.478;2023-04-08T12:37:53;18.40;;;16.60;;
19456;SDS011;9867;48.094;11.478;2023-04-08T12:40:21;17.83;;;16.23;;
19456;SDS011;9867;48.094;11.478;2023-04-08T12:42:49;16.83;;;15.33;;
19456;SDS011;9867;48.094;11.478;2023-04-08T12:45:20;18.00;;;16.30;;
19456;SDS011;9867;48.094;11.478;2023-04-08T12:47:48;17.20;;;15.60;;
19456;SDS011;9867;48.094;11.478;2023-04-08T12:50:18;17.87;;;16.07;;
19456;SDS011;9867;48.094;11.478;2023-04-08T12:52:46;17.80;;;16.20;;
19456;SDS011;9867;48.094;11.478;2023-04-08T12:55:14;18.57;;;16.73;;
19456;SDS011;9867;48.094;11.478;2023-04-08T12:57:43;18.63;;;16.93;;
19456;SDS011;9867;48.094;11.478;2023-04-08T13:00:12;18.77;;;16.97;;
19456;SDS011;9867;48.094;11.478;2023-04-08T13:02:41;16.97;;;15.47;;
19456;SDS011;9867;48.094;11.478;2023-04-08T13:05:09;17.70;;;16.00;;
19456;SDS011;9867;48.094;11.478;2023-04-08T13:07:39;17.90;;;16.27;;
19456;SDS011;9867;48.094;11.478;2023-04-08T13:10:07;16.90;;;15.20;;
19456;SDS011;9867;48.094;11.478;2023-04-08T13:12:35;17.50;;;15.70;;
19456;SDS011;9867;48.094;11.478;2023-04-08T13:15:06;17.73;;;16.10;;
19456;SDS011;9867;48.094;11.478;2023-04-08T13:17:35;16.97;;;15.37;;
19456;SDS011;9867;48.094;11.478;2023-04-08T13:20:04;17.67;;;15.97;;
19456;SDS011;9867;48.094;11.478;2023-04-08T13:22:33;18.30;;;16.43;;
19456;SDS011;9867;48.094;11.478;2023-04-08T13:25:03;15.90;;;14.60;;
19456;SDS011;9867;48.094;11.478;2023-04-08T13:27:32;16.33;;;14.80;;
19456;SDS011;9867;48.094;11.478;2023-04-08T13:30:00;15.20;;;13.73;;
19456;SDS011;9867;48.094;11.478;2023-04-08T13:32:28;14.43;;;13.10;;
19456;SDS011;9867;48.094;11.478;2023-04-08T13:34:56;15.97;;;14.57;;
19456;SDS011;9867;48.094;11.478;2023-04-08T13:37:24;14.40;;;13.10;;
19456;SDS011;9867;48.094;11.478;2023-04-08T13:39:53;14.87;;;13.37;;
19456;SDS011;9867;48.094;11.478;2023-04-08T13:42:23;15.80;;;14.30;;
19456;SDS011;9867;48.094;11.478;2023-04-08T13:44:52;14.83;;;13.33;;
19456;SDS011;9867;48.094;11.478;2023-04-08T13:47:20;13.67;;;12.43;;
19456;SDS011;9867;48.094;11.478;2023-04-08T13:49:49;14.50;;;13.17;;
19456;SDS011;9867;48.094;11.478;2023-04-08T13:52:19;15.63;;;14.03;;
19456;SDS011;9867;48.094;11.478;2023-04-08T13:54:47;15.13;;;13.57;;
19456;SDS011;9867;48.094;11.478;2023-04-08T13:57:15;15.70;;;14.20;;
19456;SDS011;9867;48.094;11.478;2023-04-08T13:59:45;15.50;;;14.00;;
19456;SDS011;9867;48.094;11.478;2023-04-08T14:02:12;15.47;;;13.77;;
19456;SDS011;9867;48.094;11.478;2023-04-08T14:04:41;16.23;;;14.63;;
19456;SDS011;9867;48.094;11.478;2023-04-08T14:07:11;16.03;;;14.40;;
19456;SDS011;9867;48.094;11.478;2023-04-08T14:09:39;14.13;;;12.80;;
19456;SDS011;9867;48.094;11.478;2023-04-08T14:12:07;15.30;;;13.70;;
19456;SDS011;9867;48.094;11.478;2023-04-08T14:14:35;15.93;;;14.37;;
19456;SDS011;9867;48.094;11.478;2023-04-08T14:17:07;15.50;;;14.10;;
19456;SDS011;9867;48.094;11.478;2023-04-08T14:19:35;14.50;;;13.20;;
19456;SDS011;9867;48.094;11.478;2023-04-08T14:22:03;15.97;;;14.57;;
19456;SDS011;9867;48.094;11.478;2023-04-08T14:24:31;16.37;;;14.77;;
19456;SDS011;9867;48.094;11.478;2023-04-08T14:26:59;15.23;;;13.83;;
19456;SDS011;9867;48.094;11.478;2023-04-08T14:29:27;15.27;;;13.87;;
19456;SDS011;9867;48.094;11.478;2023-04-08T14:31:55;16.30;;;14.83;;
19456;SDS011;9867;48.094;11.478;2023-04-08T14:34:25;15.33;;;13.90;;
19456;SDS011;9867;48.094;11.478;2023-04-08T14:36:53;14.43;;;13.13;;
19456;SDS011;9867;48.094;11.478;2023-04-08T14:39:21;13.40;;;12.20;;
19456;SDS011;9867;48.094;11.478;2023-04-08T14:41:48;14.07;;;12.83;;
19456;SDS011;9867;48.094;11.478;2023-04-08T14:44:17;13.83;;;12.63;;
19456;SDS011;9867;48.094;11.478;2023-04-08T14:46:45;13.50;;;12.30;;